CheckWX is a tool to help pilots better visualize weather data.  It is not intended as a substitute for an official pre-flight weather briefing.

21:37:37 UTC

LGTG TAF
Tanagra Airport
Tanagra, Greece
TAF LGTG 202000Z 2021/2106 35006KT 9999 SCT025 SCT070 BECMG 2101/2103 02012KT

Mar-20@
21:00 UTC

Mar-20 @ 21:00 UTC

Mar-21@
01:00 UTC

Mar-21 @ 01:00 UTC

TAF LGTG 202000Z 2021/2106 35006KT 9999 SCT025 SCT070
Wind
  • 350° at 6 KTS
Cloud Levels
  • Scattered at 2,500' AGL
  • Scattered at 7,000' AGL

Mar-21@
01:00 UTC

Mar-21 @ 01:00 UTC

Mar-21@
06:00 UTC

Mar-21 @ 06:00 UTC

BECMG 2101/2103 02012KT

Becoming

Becoming Conditions expected by Thu, Mar 21, 2019 @ 03:00 UTC

Wind
  • 020° at 12 KTS
Cloud Levels
  • Scattered at 2,500' AGL
  • Scattered at 7,000' AGL